Time;durP1;ratioP1;P1;durP2;ratioP2;P2;SDS_P1;SDS_P2;PMS_P1;PMS_P2;Temp;Humidity;BMP_temperature;BMP_pressure;BME280_temperature;BME280_humidity;BME280_pressure;Samples;Min_cycle;Max_cycle;Signal;HPM_P1;HPM_P2
2022/09/05 00:02:02;;;;;;;15.50;8.60;;;;;;;11.43;66.30;100338.27;109244;1276;23283;-55
2022/09/05 00:05:02;;;;;;;17.20;9.30;;;;;;;11.43;66.42;100335.92;109078;1275;138907;-55
2022/09/05 00:07:38;;;;;;;16.60;7.90;;;;;;;11.44;66.12;100334.02;109110;1276;22521;-55
2022/09/05 00:10:40;;;;;;;14.50;7.30;;;;;;;11.47;65.23;100332.24;109118;1277;138770;-55
2022/09/05 00:13:30;;;;;;;13.00;7.10;;;;;;;11.51;64.82;100331.02;109269;1274;22411;-55
2022/09/05 00:16:19;;;;;;;13.40;7.00;;;;;;;11.54;64.31;100328.61;108902;1276;139190;-55
2022/09/05 00:19:09;;;;;;;10.90;7.10;;;;;;;11.60;64.33;100326.82;109268;1276;22463;-55
2022/09/05 00:22:40;;;;;;;10.90;6.50;;;;;;;11.64;64.20;100326.18;109115;1275;139513;-55
2022/09/05 00:26:04;;;;;;;11.90;6.30;;;;;;;11.68;63.88;100326.14;108539;1281;22504;-55
2022/09/05 00:28:56;;;;;;;10.50;6.50;;;;;;;11.72;63.44;100321.88;108399;1282;138013;-55
2022/09/05 00:31:44;;;;;;;10.90;6.90;;;;;;;11.75;63.81;100319.17;108493;1282;22676;-56
2022/09/05 00:34:28;;;;;;;11.00;6.30;;;;;;;11.75;64.43;100320.27;108502;1281;137962;-56
2022/09/05 00:37:25;;;;;;;10.80;6.30;;;;;;;11.74;63.96;100318.92;108572;1281;22585;-55
2022/09/05 00:40:27;;;;;;;10.80;6.50;;;;;;;11.75;63.50;100315.39;108392;1282;138622;-55
2022/09/05 00:42:57;;;;;;;12.60;6.60;;;;;;;11.74;63.78;100312.00;108599;1281;22253;-56
2022/09/05 00:45:31;;;;;;;10.10;6.50;;;;;;;11.73;63.89;100310.16;108285;1282;139867;-56
2022/09/05 00:48:03;;;;;;;10.40;5.90;;;;;;;11.71;63.52;100304.88;108562;1282;22622;-55
2022/09/05 00:50:49;;;;;;;8.20;5.80;;;;;;;11.70;63.23;100306.23;108469;1282;22470;-56
2022/09/05 00:53:19;;;;;;;9.20;6.30;;;;;;;11.70;63.09;100304.10;108512;1281;22565;-54
2022/09/05 00:55:51;;;;;;;10.10;6.20;;;;;;;11.68;62.96;100304.31;108597;1281;22449;-56
2022/09/05 00:58:34;;;;;;;9.00;5.30;;;;;;;11.65;63.03;100300.29;108395;1282;138997;-56
2022/09/05 01:01:00;;;;;;;10.50;5.70;;;;;;;11.60;63.32;100299.35;108858;1276;22461;-56
2022/09/05 01:04:10;;;;;;;9.10;5.30;;;;;;;11.55;63.56;100296.19;108936;1277;140153;-56
2022/09/05 01:06:42;;;;;;;11.90;5.20;;;;;;;11.48;63.52;100289.76;109211;1276;22219;-54
2022/09/05 01:09:20;;;;;;;11.20;6.20;;;;;;;11.44;63.88;100292.11;108938;1276;138725;-56
2022/09/05 01:11:49;;;;;;;;;;;;;;;11.37;63.81;100287.14;109051;1277;23179;-56
2022/09/05 01:14:22;;;;;;;14.00;7.70;;;;;;;11.28;63.86;100283.54;109192;1276;22461;-56
2022/09/05 01:17:17;;;;;;;13.80;7.60;;;;;;;11.21;64.25;100286.90;109006;1277;139137;-54
2022/09/05 01:19:59;;;;;;;15.30;8.50;;;;;;;11.13;64.53;100288.96;109194;1277;23383;-56
2022/09/05 01:23:04;;;;;;;16.40;8.70;;;;;;;11.06;64.38;100290.20;108967;1277;138533;-56
2022/09/05 01:25:37;;;;;;;15.70;8.60;;;;;;;11.00;64.31;100283.73;109048;1278;22588;-57
2022/09/05 01:28:43;;;;;;;13.10;8.30;;;;;;;10.96;64.52;100285.91;108974;1277;140870;-56
2022/09/05 01:31:41;;;;;;;15.50;7.90;;;;;;;10.90;64.84;100284.25;109162;1276;22410;-56
2022/09/05 01:34:25;;;;;;;10.70;7.10;;;;;;;10.86;64.94;100281.93;109018;1277;138697;-56
2022/09/05 01:37:15;;;;;;;13.10;7.40;;;;;;;10.82;64.80;100277.29;109045;1277;22559;-56
2022/09/05 01:40:08;;;;;;;13.10;7.20;;;;;;;10.80;64.73;100280.40;109116;1277;137990;-56
2022/09/05 01:43:03;;;;;;;12.20;6.60;;;;;;;10.78;64.90;100277.46;109120;1277;22508;-57
2022/09/05 01:45:46;;;;;;;10.80;6.70;;;;;;;10.78;65.00;100273.21;108945;1277;139454;-56
2022/09/05 01:48:41;;;;;;;12.50;6.80;;;;;;;10.76;65.00;100273.83;109040;1277;22443;-56
2022/09/05 01:51:50;;;;;;;12.90;6.80;;;;;;;10.76;65.16;100273.59;108893;1277;138694;-56
2022/09/05 01:54:28;;;;;;;10.80;6.10;;;;;;;10.73;65.17;100271.14;109127;1277;22499;-56
2022/09/05 01:57:01;;;;;;;11.30;6.60;;;;;;;10.71;65.15;100271.80;108914;1277;137986;-56
2022/09/05 01:59:54;;;;;;;12.30;6.80;;;;;;;10.72;65.02;100279.40;108875;1276;22466;-56
2022/09/05 02:02:31;;;;;;;10.60;6.10;;;;;;;10.74;65.30;100276.18;109033;1277;22289;-55
2022/09/05 02:05:10;;;;;;;;;;;;;;;10.74;65.56;100278.73;108882;1277;137357;-56
2022/09/05 02:07:58;;;;;;;13.00;6.20;;;;;;;10.74;65.80;100280.01;109191;1276;22530;-55
2022/09/05 02:10:28;;;;;;;11.10;6.00;;;;;;;10.75;66.08;100278.88;108952;1277;138697;-56
2022/09/05 02:13:14;;;;;;;12.70;6.20;;;;;;;10.77;66.12;100276.30;109142;1277;22522;-56
2022/09/05 02:15:44;;;;;;;10.80;5.40;;;;;;;10.79;66.33;100271.61;108839;1277;139972;-56
2022/09/05 02:18:37;;;;;;;9.80;5.80;;;;;;;10.84;65.42;100275.17;109073;1277;22360;-56
2022/09/05 02:21:07;;;;;;;10.40;5.70;;;;;;;10.90;65.06;100272.04;108964;1277;139465;-56
2022/09/05 02:23:37;;;;;;;8.90;5.10;;;;;;;10.94;64.25;100267.61;108941;1277;22573;-56
2022/09/05 02:26:17;;;;;;;11.70;5.60;;;;;;;11.02;64.13;100268.08;109219;1276;22430;-56
2022/09/05 02:29:10;;;;;;;10.50;6.10;;;;;;;11.09;63.59;100266.91;108922;1277;138057;-56
2022/09/05 02:32:08;;;;;;;11.40;5.50;;;;;;;11.17;63.29;100264.49;109112;1277;22464;-56
2022/09/05 02:34:54;;;;;;;8.30;5.40;;;;;;;11.21;63.13;100257.61;108914;1276;138458;-56
2022/09/05 02:37:31;;;;;;;10.60;6.70;;;;;;;11.24;62.59;100256.14;109191;1276;23731;-56
2022/09/05 02:40:31;;;;;;;9.40;5.40;;;;;;;11.28;62.62;100251.72;108821;1277;137844;-55
2022/09/05 02:43:31;;;;;;;24.60;12.20;;;;;;;11.30;62.84;100256.67;108998;1277;22421;-56
2022/09/05 02:46:35;;;;;;;13.50;7.50;;;;;;;11.31;62.04;100267.82;108702;1277;138905;-55
2022/09/05 02:49:11;;;;;;;15.20;9.00;;;;;;;11.31;61.39;100258.61;109025;1277;22539;-56
2022/09/05 02:52:03;;;;;;;20.20;9.50;;;;;;;11.34;61.96;100254.62;109059;1277;138233;-55
2022/09/05 02:54:50;;;;;;;17.00;9.10;;;;;;;11.34;62.37;100259.61;108847;1277;22466;-56
2022/09/05 02:57:45;;;;;;;16.50;9.70;;;;;;;11.37;62.61;100263.09;108976;1277;138492;-56
2022/09/05 03:00:37;;;;;;;16.80;9.40;;;;;;;11.38;62.92;100261.63;109200;1276;22993;-56
2022/09/05 03:03:29;;;;;;;17.00;9.50;;;;;;;11.37;63.46;100260.80;108687;1278;139094;-55
2022/09/05 03:06:19;;;;;;;14.20;8.60;;;;;;;11.35;63.69;100260.92;109188;1276;22665;-56
2022/09/05 03:09:09;;;;;;;17.10;8.40;;;;;;;11.34;63.99;100259.32;108931;1276;138619;-56
2022/09/05 03:11:49;;;;;;;15.30;7.60;;;;;;;11.33;64.49;100261.16;109129;1276;22484;-55
2022/09/05 03:14:40;;;;;;;14.70;7.50;;;;;;;11.31;64.41;100263.02;109144;1277;22679;-56
2022/09/05 03:17:32;;;;;;;16.50;8.40;;;;;;;11.30;64.49;100265.08;109150;1277;22427;-55
2022/09/05 03:22:01;;;;;;;19.30;8.10;;;;;;;11.32;64.27;100263.58;101793;1310;545250;-56
2022/09/05 03:24:57;;;;;;;20.30;7.80;;;;;;;11.32;64.35;100263.27;103967;1287;25376;-55
2022/09/05 03:27:45;;;;;;;17.30;7.80;;;;;;;11.31;64.82;100263.29;102945;1295;138837;-56
2022/09/05 03:30:31;;;;;;;12.30;7.40;;;;;;;11.29;65.31;100266.64;102983;1295;25517;-56
2022/09/05 03:33:16;;;;;;;18.80;7.50;;;;;;;11.27;65.63;100263.53;102984;1295;138088;-56
2022/09/05 03:36:27;;;;;;;21.30;9.00;;;;;;;11.25;65.59;100265.21;102211;1294;1325747;-56
2022/09/05 03:39:03;;;;;;;14.50;6.40;;;;;;;11.24;65.92;100263.55;103114;1292;139128;-56
2022/09/05 03:41:39;;;;;;;17.30;7.70;;;;;;;11.22;65.78;100272.57;103396;1292;24322;-58
2022/09/05 03:44:12;;;;;;;19.80;6.70;;;;;;;11.21;66.10;100271.41;107504;1292;22540;-58
2022/09/05 03:47:08;;;;;;;18.30;7.30;;;;;;;11.21;66.69;100269.66;107422;1292;139041;-59
2022/09/05 03:49:50;;;;;;;20.00;7.20;;;;;;;11.21;66.51;100269.99;107488;1291;22491;-59
2022/09/05 03:53:04;;;;;;;19.50;7.20;;;;;;;11.21;66.60;100269.98;107444;1292;138215;-59
2022/09/05 03:56:18;;;;;;;18.40;6.90;;;;;;;11.23;66.64;100267.30;107560;1292;22352;-59
2022/09/05 03:59:28;;;;;;;14.30;6.30;;;;;;;11.25;66.58;100267.06;107257;1292;138906;-59
2022/09/05 04:02:04;;;;;;;11.40;7.30;;;;;;;11.26;66.49;100265.70;107547;1292;22431;-59
2022/09/05 04:04:54;;;;;;;18.20;7.70;;;;;;;11.29;66.49;100267.30;107769;1286;138938;-59
2022/09/05 04:07:43;;;;;;;17.10;6.30;;;;;;;11.34;66.48;100264.83;108173;1286;22465;-59
2022/09/05 04:11:11;;;;;;;16.00;7.10;;;;;;;11.37;66.09;100265.17;108153;1285;139068;-59
2022/09/05 04:13:47;;;;;;;17.50;6.80;;;;;;;11.41;65.69;100260.08;108279;1286;22462;-59
2022/09/05 04:16:17;;;;;;;17.10;6.10;;;;;;;11.43;66.27;100261.11;108081;1287;139151;-59
2022/09/05 04:19:25;;;;;;;13.40;6.60;;;;;;;11.45;66.79;100265.23;108145;1286;23429;-58
2022/09/05 04:21:58;;;;;;;16.70;6.30;;;;;;;11.45;67.32;100268.03;107599;1290;137527;-58
2022/09/05 04:24:43;;;;;;;24.40;7.30;;;;;;;11.48;67.28;100266.39;107333;1292;22685;-58
2022/09/05 04:27:36;;;;;;;25.70;9.40;;;;;;;11.52;67.72;100266.46;107593;1290;138797;-58
2022/09/05 04:30:36;;;;;;;15.50;7.20;;;;;;;11.55;67.49;100272.67;107720;1289;22720;-57
2022/09/05 04:33:22;;;;;;;14.70;7.90;;;;;;;11.57;66.56;100269.22;107647;1287;138800;-58
2022/09/05 04:36:11;;;;;;;17.70;7.50;;;;;;;11.62;67.08;100271.88;108011;1287;22488;-58
2022/09/05 04:38:44;;;;;;;17.10;7.60;;;;;;;11.68;67.18;100267.50;107629;1289;138333;-58
2022/09/05 04:41:12;;;;;;;23.80;8.00;;;;;;;11.72;67.15;100266.59;108097;1287;22440;-56
2022/09/05 04:43:44;;;;;;;15.80;8.40;;;;;;;11.77;66.57;100265.66;107779;1287;22667;-56
2022/09/05 04:46:14;;;;;;;23.10;7.80;;;;;;;11.82;66.48;100265.39;107926;1287;138785;-56
2022/09/05 04:49:05;;;;;;;17.90;7.80;;;;;;;11.89;66.41;100267.06;108064;1289;22495;-56
2022/09/05 04:51:38;;;;;;;;;;;;;;;11.95;66.02;100263.35;107598;1290;139190;-56
2022/09/05 04:54:53;;;;;;;20.70;8.20;;;;;;;12.00;65.68;100261.13;107758;1290;22537;-56
2022/09/05 04:57:24;;;;;;;20.00;8.40;;;;;;;12.09;65.79;100266.19;107037;1290;138794;-57
2022/09/05 05:00:17;;;;;;;22.00;8.10;;;;;;;12.15;65.48;100263.81;107656;1289;22605;-56
2022/09/05 05:03:16;;;;;;;17.60;8.40;;;;;;;12.23;65.01;100258.33;107684;1289;139794;-56
2022/09/05 05:06:27;;;;;;;17.40;7.90;;;;;;;12.31;64.56;100260.11;107757;1289;22664;-57
2022/09/05 05:09:14;;;;;;;26.20;8.30;;;;;;;12.39;63.93;100261.60;107784;1289;138373;-56
2022/09/05 05:12:02;;;;;;;31.10;9.30;;;;;;;12.45;63.76;100264.45;107751;1289;22585;-56
2022/09/05 05:14:56;;;;;;;23.60;8.10;;;;;;;12.53;63.83;100264.11;107684;1289;137677;-57
2022/09/05 05:18:08;;;;;;;20.20;8.80;;;;;;;12.61;63.19;100257.19;107849;1289;22442;-56
2022/09/05 05:20:59;;;;;;;22.60;8.50;;;;;;;12.69;62.52;100264.36;107773;1290;137889;-56
2022/09/05 05:23:28;;;;;;;19.30;8.90;;;;;;;12.76;62.10;100261.01;107642;1290;22554;-56
2022/09/05 05:25:57;;;;;;;19.80;9.50;;;;;;;12.83;61.92;100259.23;107915;1290;22332;-56
2022/09/05 05:28:30;;;;;;;40.80;10.20;;;;;;;12.90;61.71;100259.69;107701;1290;137823;-56
2022/09/05 05:31:07;;;;;;;20.80;8.90;;;;;;;12.96;60.89;100256.55;107910;1290;22493;-57
2022/09/05 05:33:35;;;;;;;21.60;9.40;;;;;;;13.01;60.30;100251.13;107890;1284;137746;-57
2022/09/05 05:36:03;;;;;;;18.30;9.50;;;;;;;13.05;60.48;100256.21;108613;1284;22466;-56
2022/09/05 05:38:33;;;;;;;17.90;9.90;;;;;;;13.09;60.27;100260.48;108538;1284;22579;-56
2022/09/05 05:41:13;;;;;;;17.60;9.50;;;;;;;13.14;60.04;100259.39;108417;1284;138835;-56
2022/09/05 05:43:40;;;;;;;16.90;9.20;;;;;;;13.18;59.83;100256.48;108334;1282;23230;-56
2022/09/05 05:46:14;;;;;;;22.50;9.40;;;;;;;13.21;59.80;100259.33;108508;1284;137736;-56
2022/09/05 05:48:41;;;;;;;18.10;9.30;;;;;;;13.24;59.45;100263.08;108465;1284;22469;-56
2022/09/05 05:51:52;;;;;;;20.30;9.90;;;;;;;13.27;59.24;100265.25;108539;1283;138088;-56
2022/09/05 05:54:28;;;;;;;22.30;8.60;;;;;;;13.27;58.94;100263.81;108484;1284;23208;-56
2022/09/05 05:57:13;;;;;;;19.10;8.40;;;;;;;13.27;58.32;100275.20;108273;1284;138141;-59
2022/09/05 05:59:59;;;;;;;19.70;8.70;;;;;;;13.23;58.20;100276.21;108489;1284;22267;-56
2022/09/05 06:02:54;;;;;;;16.50;8.80;;;;;;;13.19;58.59;100275.50;108523;1284;22456;-56
2022/09/05 06:06:12;;;;;;;19.10;9.60;;;;;;;13.20;58.98;100268.94;108634;1283;23598;-56
2022/09/05 06:09:03;;;;;;;39.50;11.30;;;;;;;13.24;59.16;100271.74;108609;1283;22455;-56
2022/09/05 06:12:02;;;;;;;22.70;10.30;;;;;;;13.30;59.07;100269.77;108665;1283;22499;-56
2022/09/05 06:15:07;;;;;;;33.40;10.90;;;;;;;13.37;58.86;100269.29;108500;1283;138466;-56
2022/09/05 06:18:13;;;;;;;38.60;10.70;;;;;;;13.46;58.32;100269.70;108614;1283;22443;-57
2022/09/05 06:20:49;;;;;;;36.80;13.70;;;;;;;13.58;57.47;100268.99;108497;1283;138063;-59
2022/09/05 06:24:02;;;;;;;34.60;11.90;;;;;;;13.66;57.44;100269.86;108328;1286;22439;-56
2022/09/05 06:26:56;;;;;;;21.70;9.70;;;;;;;13.76;57.48;100277.27;107794;1289;22615;-57
2022/09/05 06:29:41;;;;;;;23.40;9.40;;;;;;;13.91;57.56;100280.96;107780;1290;23350;-57
2022/09/05 06:32:30;;;;;;;25.40;9.80;;;;;;;14.05;56.99;100281.41;107569;1290;22326;-57
2022/09/05 06:35:17;;;;;;;24.00;10.90;;;;;;;14.21;57.03;100284.05;107652;1290;139127;-57
2022/09/05 06:37:53;;;;;;;30.30;13.00;;;;;;;14.37;56.74;100294.70;107714;1289;22586;-57
2022/09/05 06:40:27;;;;;;;19.50;9.80;;;;;;;14.53;56.61;100300.38;107687;1289;137815;-57
2022/09/05 06:43:27;;;;;;;14.50;8.40;;;;;;;14.68;56.36;100302.42;107697;1289;23006;-57
2022/09/05 06:46:24;;;;;;;12.60;8.20;;;;;;;14.81;56.04;100299.75;107680;1289;137795;-57
2022/09/05 06:49:24;;;;;;;21.50;9.10;;;;;;;14.89;56.00;100306.97;107883;1289;23600;-57
2022/09/05 06:52:20;;;;;;;22.20;11.40;;;;;;;14.91;55.79;100305.33;107506;1289;138724;-57
2022/09/05 06:55:04;;;;;;;215.30;128.50;;;;;;;14.91;55.69;100313.84;107759;1288;22472;-57
2022/09/05 06:57:59;;;;;;;403.70;260.20;;;;;;;14.85;55.36;100318.75;107696;1289;138596;-57
2022/09/05 07:00:51;;;;;;;399.00;252.10;;;;;;;14.75;55.80;100319.84;106946;1297;22667;-57
2022/09/05 07:03:48;;;;;;;403.50;246.20;;;;;;;14.65;55.91;100319.02;106728;1292;138435;-56
2022/09/05 07:06:35;;;;;;;423.90;273.80;;;;;;;14.58;55.96;100315.86;107585;1290;22469;-57
2022/09/05 07:09:41;;;;;;;451.00;302.10;;;;;;;14.51;56.08;100320.26;107599;1290;138928;-57
2022/09/05 07:12:19;;;;;;;428.30;283.10;;;;;;;14.45;55.36;100319.22;107555;1290;22468;-57
2022/09/05 07:15:04;;;;;;;406.70;262.30;;;;;;;14.35;55.76;100319.08;107496;1290;140188;-57
2022/09/05 07:18:12;;;;;;;377.90;236.10;;;;;;;14.28;56.01;100324.89;107740;1290;22591;-57
2022/09/05 07:20:45;;;;;;;357.50;220.80;;;;;;;14.25;56.36;100327.94;107497;1290;22451;-56
2022/09/05 07:23:49;;;;;;;326.10;203.60;;;;;;;14.23;56.45;100327.48;107716;1290;22662;-56
2022/09/05 07:26:39;;;;;;;307.90;194.10;;;;;;;14.19;56.27;100335.61;107714;1290;22485;-56
2022/09/05 07:29:28;;;;;;;289.90;171.30;;;;;;;14.15;56.45;100375.47;107447;1291;22597;-56
2022/09/05 07:31:55;;;;;;;228.30;138.40;;;;;;;14.12;56.99;100379.35;107688;1289;22463;-57
2022/09/05 07:34:30;;;;;;;205.70;114.90;;;;;;;14.08;57.69;100385.84;107559;1290;138380;-58
2022/09/05 07:37:00;;;;;;;184.70;102.80;;;;;;;14.09;58.51;100395.95;107630;1284;23648;-57
2022/09/05 07:39:57;;;;;;;150.10;88.50;;;;;;;14.03;58.95;100395.93;108218;1283;138326;-57
2022/09/05 07:42:42;;;;;;;137.80;78.20;;;;;;;13.92;59.70;100395.50;108471;1283;23450;-57
2022/09/05 07:45:16;;;;;;;110.60;64.30;;;;;;;13.82;60.29;100392.11;108262;1283;140076;-57
2022/09/05 07:47:52;;;;;;;106.00;63.70;;;;;;;13.67;61.18;100387.71;108389;1283;22563;-55
2022/09/05 07:50:19;;;;;;;112.00;63.80;;;;;;;13.51;61.92;100384.59;108463;1283;22489;-57
2022/09/05 07:53:05;;;;;;;116.40;67.50;;;;;;;13.39;63.61;100390.02;108609;1283;22466;-57
2022/09/05 07:55:55;;;;;;;106.50;62.20;;;;;;;13.21;64.73;100389.76;108773;1280;22409;-57
2022/09/05 07:58:50;;;;;;;102.70;57.60;;;;;;;13.05;65.73;100370.73;108856;1280;139462;-57
2022/09/05 08:01:18;;;;;;;92.20;53.80;;;;;;;12.92;66.69;100356.02;108617;1280;22565;-57
2022/09/05 08:03:45;;;;;;;89.80;52.90;;;;;;;12.86;67.36;100358.70;108566;1280;139836;-57
2022/09/05 08:06:17;;;;;;;89.00;51.60;;;;;;;12.81;68.00;100363.36;108888;1279;22759;-57
2022/09/05 08:09:14;;;;;;;82.60;45.80;;;;;;;12.77;68.62;100356.98;108678;1280;139595;-58
2022/09/05 08:12:04;;;;;;;84.30;45.80;;;;;;;12.75;69.22;100354.40;108833;1280;23519;-57
2022/09/05 08:14:43;;;;;;;82.60;43.40;;;;;;;12.72;69.78;100352.06;108944;1280;22431;-57
2022/09/05 08:17:14;;;;;;;72.60;44.20;;;;;;;12.71;70.27;100352.75;108977;1279;22562;-57
2022/09/05 08:19:54;;;;;;;72.10;41.00;;;;;;;12.77;71.17;100352.95;108778;1280;22483;-58
2022/09/05 08:22:45;;;;;;;71.90;39.00;;;;;;;12.85;71.59;100340.70;108654;1280;139310;-57
2022/09/05 08:25:22;;;;;;;73.80;43.40;;;;;;;12.92;71.82;100343.27;108731;1280;23930;-57
2022/09/05 08:27:59;;;;;;;75.80;43.00;;;;;;;13.01;72.22;100339.65;108820;1280;139738;-57
2022/09/05 08:30:26;;;;;;;72.20;43.20;;;;;;;13.10;72.58;100334.97;108907;1280;23357;-57
2022/09/05 08:33:02;;;;;;;65.00;38.60;;;;;;;13.19;72.46;100327.15;108809;1280;138805;-57
2022/09/05 08:35:42;;;;;;;70.00;39.60;;;;;;;13.29;72.62;100325.80;108919;1279;23215;-57
2022/09/05 08:38:08;;;;;;;100.90;54.50;;;;;;;13.40;72.40;100330.97;108683;1280;23317;-57
2022/09/05 08:40:50;;;;;;;145.20;77.30;;;;;;;13.50;71.94;100329.27;105774;1280;139387;-57
2022/09/05 08:43:27;;;;;;;72.40;44.50;;;;;;;13.62;71.89;100326.05;104529;1280;22648;-57
2022/09/05 08:46:27;;;;;;;63.00;38.90;;;;;;;13.74;70.80;100332.30;104427;1280;138989;-57
2022/09/05 08:49:32;;;;;;;56.00;33.80;;;;;;;13.83;69.81;100330.48;108962;1280;22482;-57
2022/09/05 08:52:47;;;;;;;49.50;31.00;;;;;;;13.90;69.25;100330.70;108859;1280;139437;-57
2022/09/05 08:55:22;;;;;;;61.90;31.90;;;;;;;13.97;68.56;100329.96;108372;1284;22500;-58
2022/09/05 08:57:52;;;;;;;56.20;32.60;;;;;;;14.04;68.63;100328.63;108274;1284;139296;-58
2022/09/05 09:00:19;;;;;;;54.00;32.60;;;;;;;14.11;68.03;100325.20;108283;1284;22468;-58
2022/09/05 09:03:03;;;;;;;55.30;31.50;;;;;;;14.18;67.98;100320.53;108318;1283;139735;-58
2022/09/05 09:05:59;;;;;;;57.00;30.10;;;;;;;14.29;67.60;100317.11;108386;1284;22465;-58
2022/09/05 09:09:14;;;;;;;47.00;29.90;;;;;;;14.42;67.28;100310.48;107465;1290;138653;-59
2022/09/05 09:11:48;;;;;;;37.30;21.20;;;;;;;14.54;66.44;100307.61;107625;1290;22553;-56
2022/09/05 09:14:37;;;;;;;42.90;25.80;;;;;;;14.63;65.10;100310.67;107494;1290;22508;-56
2022/09/05 09:17:44;;;;;;;43.10;20.80;;;;;;;14.74;63.80;100311.83;107772;1290;22573;-56
2022/09/05 09:20:15;;;;;;;30.10;17.30;;;;;;;14.82;62.67;100307.61;107652;1290;23573;-56
2022/09/05 09:22:52;;;;;;;37.10;16.00;;;;;;;14.92;62.23;100305.02;107380;1290;138461;-56
2022/09/05 09:25:22;;;;;;;30.70;15.80;;;;;;;15.04;61.67;100306.71;107664;1290;23322;-57
2022/09/05 09:28:01;;;;;;;31.30;15.60;;;;;;;15.18;60.95;100306.65;107386;1290;140545;-56
2022/09/05 09:31:06;;;;;;;18.60;11.20;;;;;;;15.32;60.43;100302.42;107339;1293;22566;-56
2022/09/05 09:33:42;;;;;;;15.90;9.20;;;;;;;15.43;59.47;100300.86;107960;1286;138086;-57
2022/09/05 09:36:35;;;;;;;12.20;7.50;;;;;;;15.57;57.83;100298.48;108252;1286;22427;-57
2022/09/05 09:39:26;;;;;;;12.60;7.80;;;;;;;15.70;56.65;100300.08;108072;1286;138539;-57
2022/09/05 09:42:44;;;;;;;13.90;8.20;;;;;;;15.80;56.05;100298.05;108279;1284;22560;-57
2022/09/05 09:45:37;;;;;;;14.10;8.60;;;;;;;15.88;55.52;100291.06;108236;1280;138227;-57
2022/09/05 09:48:11;;;;;;;16.00;9.10;;;;;;;15.93;55.55;100289.30;108952;1280;23644;-57
2022/09/05 09:50:56;;;;;;;15.50;10.20;;;;;;;15.99;55.80;100285.68;108978;1280;22459;-56
2022/09/05 09:53:51;;;;;;;16.10;9.20;;;;;;;16.05;55.33;100283.70;108972;1280;22446;-57
2022/09/05 09:56:55;;;;;;;15.00;9.90;;;;;;;16.09;54.84;100281.83;108915;1280;22582;-57
2022/09/05 09:59:46;;;;;;;16.30;8.80;;;;;;;16.12;54.51;100279.30;108971;1280;23437;-56
2022/09/05 10:02:54;;;;;;;14.40;8.20;;;;;;;16.11;53.52;100281.52;108967;1280;22440;-57
2022/09/05 10:06:05;;;;;;;16.00;8.50;;;;;;;16.09;53.69;100273.75;109027;1280;22493;-56
2022/09/05 10:09:17;;;;;;;13.20;8.30;;;;;;;16.08;53.91;100267.98;108903;1280;138870;-57
2022/09/05 10:12:37;;;;;;;13.70;7.80;;;;;;;16.09;54.31;100263.41;109018;1279;22459;-57
2022/09/05 10:15:20;;;;;;;10.90;7.80;;;;;;;16.13;54.61;100259.56;108749;1279;139292;-57
2022/09/05 10:18:23;;;;;;;12.50;8.10;;;;;;;16.14;53.92;100249.84;108997;1279;23681;-57
2022/09/05 10:21:13;;;;;;;10.80;6.60;;;;;;;16.16;53.64;100245.91;108919;1277;137831;-57
2022/09/05 10:24:12;;;;;;;13.50;8.90;;;;;;;16.22;53.65;100247.73;109027;1277;23421;-57
2022/09/05 10:27:07;;;;;;;15.90;9.10;;;;;;;16.30;53.22;100249.42;108339;1284;23004;-57
2022/09/05 10:29:44;;;;;;;15.70;9.10;;;;;;;16.35;54.37;100250.16;108291;1286;22364;-57
2022/09/05 10:32:22;;;;;;;13.30;8.60;;;;;;;16.45;54.27;100248.88;108483;1283;22480;-57
2022/09/05 10:35:22;;;;;;;16.00;9.60;;;;;;;16.56;53.46;100252.82;108518;1282;22478;-57
2022/09/05 10:38:10;;;;;;;15.00;9.40;;;;;;;16.66;52.71;100252.48;108338;1284;23226;-58
2022/09/05 10:40:38;;;;;;;9.80;5.50;;;;;;;16.79;52.11;100258.38;108108;1284;139423;-58
2022/09/05 10:43:27;;;;;;;8.50;6.10;;;;;;;16.88;50.45;100256.20;108147;1286;22540;-58
2022/09/05 10:45:59;;;;;;;11.00;5.90;;;;;;;16.91;50.58;100256.63;108409;1283;138202;-57
2022/09/05 10:48:29;;;;;;;7.80;4.40;;;;;;;16.92;50.01;100259.70;108444;1283;22475;-57
2022/09/05 10:51:02;;;;;;;6.00;3.80;;;;;;;16.87;48.24;100257.91;108133;1284;138110;-57
2022/09/05 10:53:37;;;;;;;12.40;4.00;;;;;;;16.77;48.20;100254.92;108904;1280;22516;-57
2022/09/05 10:56:11;;;;;;;4.70;3.10;;;;;;;16.67;47.60;100248.41;108572;1281;22419;-58
2022/09/05 10:58:46;;;;;;;5.70;3.60;;;;;;;16.61;47.24;100244.38;108704;1281;137561;-58
2022/09/05 11:01:45;;;;;;;7.60;4.50;;;;;;;16.61;47.24;100239.55;108502;1282;22567;-57
2022/09/05 11:04:35;;;;;;;11.70;6.50;;;;;;;16.64;47.26;100240.44;109115;1274;137395;-57
2022/09/05 11:07:37;;;;;;;9.40;5.80;;;;;;;16.64;47.53;100234.39;109252;1277;22564;-57
2022/09/05 11:10:23;;;;;;;14.70;6.80;;;;;;;16.66;48.42;100239.39;109254;1274;138208;-57
2022/09/05 11:13:02;;;;;;;15.20;7.20;;;;;;;16.67;48.36;100240.65;109142;1274;23218;-57
2022/09/05 11:15:36;;;;;;;11.80;6.90;;;;;;;16.59;48.43;100237.67;109148;1274;137726;-57
2022/09/05 11:18:17;;;;;;;12.90;7.20;;;;;;;16.51;49.03;100241.22;109346;1275;22452;-57
2022/09/05 11:20:55;;;;;;;13.40;8.40;;;;;;;16.43;49.30;100241.36;109008;1274;139711;-57
2022/09/05 11:23:29;;;;;;;12.60;7.60;;;;;;;16.32;50.41;100247.70;109341;1275;22460;-58
2022/09/05 11:26:00;;;;;;;10.40;7.50;;;;;;;16.20;52.02;100247.77;109269;1274;22448;-57
2022/09/05 11:28:42;;;;;;;14.60;7.50;;;;;;;16.08;53.70;100245.15;108995;1277;137936;-57
2022/09/05 11:31:28;;;;;;;;;;;;;;;15.91;53.92;100245.55;109346;1274;22506;-58
2022/09/05 11:34:26;;;;;;;14.50;5.40;;;;;;;15.78;53.25;100242.09;109309;1274;124039;-58
2022/09/05 11:37:45;;;;;;;9.40;5.10;;;;;;;15.66;53.68;100238.24;109196;1274;23471;-58
2022/09/05 11:41:23;;;;;;;11.80;4.50;;;;;;;15.60;53.17;100232.35;109260;1274;139163;-58
2022/09/05 11:44:06;;;;;;;8.30;4.70;;;;;;;15.57;52.39;100232.47;108588;1282;23560;-57
2022/09/05 11:47:19;;;;;;;7.60;4.00;;;;;;;15.54;52.44;100235.80;108497;1282;137761;-57
2022/09/05 11:50:25;;;;;;;4.20;3.00;;;;;;;15.54;52.26;100233.76;108523;1284;22505;-57
2022/09/05 11:53:03;;;;;;;5.20;3.00;;;;;;;15.55;52.62;100232.14;108473;1280;139629;-57
2022/09/05 11:55:55;;;;;;;6.30;3.80;;;;;;;15.59;53.00;100226.92;108569;1282;22477;-56
2022/09/05 11:58:43;;;;;;;5.60;2.90;;;;;;;15.65;53.53;100221.55;108494;1282;137514;-57
2022/09/05 12:01:42;;;;;;;5.00;3.50;;;;;;;15.79;53.00;100219.45;108490;1282;22422;-57
2022/09/05 12:04:19;;;;;;;3.90;2.70;;;;;;;15.94;52.48;100207.08;108154;1282;139171;-57
2022/09/05 12:07:09;;;;;;;4.70;3.00;;;;;;;16.12;52.09;100208.15;108594;1281;22551;-57
2022/09/05 12:10:21;;;;;;;7.80;3.10;;;;;;;16.29;50.96;100205.31;108396;1282;137822;-57
2022/09/05 12:13:30;;;;;;;4.90;2.60;;;;;;;16.44;50.39;100199.10;108470;1282;22460;-57
2022/09/05 12:16:00;;;;;;;4.80;2.80;;;;;;;16.59;49.99;100203.25;108401;1282;139162;-56
2022/09/05 12:18:57;;;;;;;4.60;2.30;;;;;;;16.73;48.69;100203.70;108702;1274;22534;-56
2022/09/05 12:21:44;;;;;;;4.40;2.70;;;;;;;16.79;48.54;100200.86;109278;1272;139155;-56
2022/09/05 12:24:28;;;;;;;7.70;4.20;;;;;;;16.85;48.03;100203.05;109270;1276;22640;-55
2022/09/05 12:27:15;;;;;;;7.10;4.80;;;;;;;16.89;46.21;100201.86;109211;1274;137888;-56
2022/09/05 12:30:07;;;;;;;12.40;4.90;;;;;;;16.85;46.18;100202.45;109255;1274;22390;-56
2022/09/05 12:32:35;;;;;;;7.20;4.50;;;;;;;16.83;46.16;100199.15;109212;1274;22546;-56
2022/09/05 12:35:38;;;;;;;10.80;4.60;;;;;;;16.84;46.86;100197.60;109234;1275;22544;-57
2022/09/05 12:38:47;;;;;;;10.40;4.70;;;;;;;16.93;46.74;100196.50;109319;1274;22524;-56